sensor_id;sensor_type;location;lat;lon;timestamp;P1;durP1;ratioP1;P2;durP2;ratioP2
10904;SDS011;5505;51.450;9.254;2022-09-27T00:02:37;1.43;;;0.60;;
10904;SDS011;5505;51.450;9.254;2022-09-27T00:05:26;1.00;;;0.83;;
10904;SDS011;5505;51.450;9.254;2022-09-27T00:08:13;0.80;;;0.50;;
10904;SDS011;5505;51.450;9.254;2022-09-27T00:11:01;1.90;;;0.60;;
10904;SDS011;5505;51.450;9.254;2022-09-27T00:13:50;1.63;;;0.80;;
10904;SDS011;5505;51.450;9.254;2022-09-27T00:16:37;2.33;;;0.60;;
10904;SDS011;5505;51.450;9.254;2022-09-27T00:19:26;0.80;;;0.73;;
10904;SDS011;5505;51.450;9.254;2022-09-27T00:22:14;1.73;;;0.77;;
10904;SDS011;5505;51.450;9.254;2022-09-27T00:25:02;0.70;;;0.70;;
10904;SDS011;5505;51.450;9.254;2022-09-27T00:27:51;0.50;;;0.50;;
10904;SDS011;5505;51.450;9.254;2022-09-27T00:30:40;0.80;;;0.60;;
10904;SDS011;5505;51.450;9.254;2022-09-27T00:33:27;1.00;;;0.57;;
10904;SDS011;5505;51.450;9.254;2022-09-27T00:36:15;0.60;;;0.60;;
10904;SDS011;5505;51.450;9.254;2022-09-27T00:39:04;0.90;;;0.90;;
10904;SDS011;5505;51.450;9.254;2022-09-27T00:41:51;1.40;;;0.90;;
10904;SDS011;5505;51.450;9.254;2022-09-27T00:44:58;0.60;;;0.60;;
10904;SDS011;5505;51.450;9.254;2022-09-27T00:47:52;0.50;;;0.50;;
10904;SDS011;5505;51.450;9.254;2022-09-27T00:50:45;0.80;;;0.63;;
10904;SDS011;5505;51.450;9.254;2022-09-27T00:53:38;1.10;;;0.90;;
10904;SDS011;5505;51.450;9.254;2022-09-27T00:56:32;0.73;;;0.60;;
10904;SDS011;5505;51.450;9.254;2022-09-27T00:59:21;0.80;;;0.80;;
10904;SDS011;5505;51.450;9.254;2022-09-27T01:02:12;1.70;;;0.70;;
10904;SDS011;5505;51.450;9.254;2022-09-27T01:05:00;0.77;;;0.77;;
10904;SDS011;5505;51.450;9.254;2022-09-27T01:07:48;1.17;;;0.90;;
10904;SDS011;5505;51.450;9.254;2022-09-27T01:10:35;1.90;;;0.80;;
10904;SDS011;5505;51.450;9.254;2022-09-27T01:13:34;0.70;;;0.70;;
10904;SDS011;5505;51.450;9.254;2022-09-27T01:16:26;0.67;;;0.67;;
10904;SDS011;5505;51.450;9.254;2022-09-27T01:19:30;2.20;;;0.83;;
10904;SDS011;5505;51.450;9.254;2022-09-27T01:22:32;0.80;;;0.73;;
10904;SDS011;5505;51.450;9.254;2022-09-27T01:25:39;1.13;;;0.70;;
10904;SDS011;5505;51.450;9.254;2022-09-27T01:28:41;2.90;;;0.80;;
10904;SDS011;5505;51.450;9.254;2022-09-27T01:31:44;1.00;;;0.57;;
10904;SDS011;5505;51.450;9.254;2022-09-27T01:34:39;1.23;;;0.80;;
10904;SDS011;5505;51.450;9.254;2022-09-27T01:37:33;2.47;;;0.80;;
10904;SDS011;5505;51.450;9.254;2022-09-27T01:40:28;0.73;;;0.73;;
10904;SDS011;5505;51.450;9.254;2022-09-27T01:43:22;0.87;;;0.70;;
10904;SDS011;5505;51.450;9.254;2022-09-27T01:46:14;1.33;;;0.83;;
10904;SDS011;5505;51.450;9.254;2022-09-27T01:49:09;1.27;;;1.13;;
10904;SDS011;5505;51.450;9.254;2022-09-27T01:52:01;0.90;;;0.83;;
10904;SDS011;5505;51.450;9.254;2022-09-27T01:54:52;2.50;;;1.40;;
10904;SDS011;5505;51.450;9.254;2022-09-27T01:57:42;3.67;;;1.37;;
10904;SDS011;5505;51.450;9.254;2022-09-27T02:00:34;2.00;;;1.20;;
10904;SDS011;5505;51.450;9.254;2022-09-27T02:03:25;2.17;;;1.33;;
10904;SDS011;5505;51.450;9.254;2022-09-27T02:06:18;1.10;;;1.10;;
10904;SDS011;5505;51.450;9.254;2022-09-27T02:09:09;1.80;;;1.53;;
10904;SDS011;5505;51.450;9.254;2022-09-27T02:11:59;1.80;;;1.53;;
10904;SDS011;5505;51.450;9.254;2022-09-27T02:14:52;5.90;;;1.70;;
10904;SDS011;5505;51.450;9.254;2022-09-27T02:17:42;1.67;;;1.57;;
10904;SDS011;5505;51.450;9.254;2022-09-27T02:20:34;1.93;;;1.70;;
10904;SDS011;5505;51.450;9.254;2022-09-27T02:23:28;2.60;;;1.70;;
10904;SDS011;5505;51.450;9.254;2022-09-27T02:26:23;3.23;;;1.90;;
10904;SDS011;5505;51.450;9.254;2022-09-27T02:29:13;2.37;;;2.17;;
10904;SDS011;5505;51.450;9.254;2022-09-27T02:32:05;2.30;;;2.10;;
10904;SDS011;5505;51.450;9.254;2022-09-27T02:34:54;2.90;;;2.17;;
10904;SDS011;5505;51.450;9.254;2022-09-27T02:37:44;2.67;;;2.40;;
10904;SDS011;5505;51.450;9.254;2022-09-27T02:40:34;2.50;;;2.00;;
10904;SDS011;5505;51.450;9.254;2022-09-27T02:43:28;4.07;;;2.60;;
10904;SDS011;5505;51.450;9.254;2022-09-27T02:46:32;5.30;;;2.50;;
10904;SDS011;5505;51.450;9.254;2022-09-27T02:49:37;2.73;;;2.50;;
10904;SDS011;5505;51.450;9.254;2022-09-27T02:52:37;2.80;;;2.60;;
10904;SDS011;5505;51.450;9.254;2022-09-27T02:55:29;4.07;;;2.40;;
10904;SDS011;5505;51.450;9.254;2022-09-27T02:58:29;3.13;;;2.40;;
10904;SDS011;5505;51.450;9.254;2022-09-27T03:01:26;4.17;;;2.63;;
10904;SDS011;5505;51.450;9.254;2022-09-27T03:04:24;3.37;;;2.67;;
10904;SDS011;5505;51.450;9.254;2022-09-27T03:07:19;3.60;;;2.27;;
10904;SDS011;5505;51.450;9.254;2022-09-27T03:10:10;2.70;;;2.50;;
10904;SDS011;5505;51.450;9.254;2022-09-27T03:13:03;2.90;;;2.47;;
10904;SDS011;5505;51.450;9.254;2022-09-27T03:15:51;2.10;;;1.90;;
10904;SDS011;5505;51.450;9.254;2022-09-27T03:18:38;2.90;;;2.30;;
10904;SDS011;5505;51.450;9.254;2022-09-27T03:21:26;2.83;;;1.63;;
10904;SDS011;5505;51.450;9.254;2022-09-27T03:24:13;3.10;;;2.10;;
10904;SDS011;5505;51.450;9.254;2022-09-27T03:27:00;1.63;;;1.47;;
10904;SDS011;5505;51.450;9.254;2022-09-27T03:29:49;1.73;;;1.50;;
10904;SDS011;5505;51.450;9.254;2022-09-27T03:32:36;2.50;;;1.00;;
10904;SDS011;5505;51.450;9.254;2022-09-27T03:35:27;1.30;;;0.90;;
10904;SDS011;5505;51.450;9.254;2022-09-27T03:38:14;2.47;;;0.73;;
10904;SDS011;5505;51.450;9.254;2022-09-27T03:41:01;2.47;;;0.87;;
10904;SDS011;5505;51.450;9.254;2022-09-27T03:43:49;1.40;;;0.80;;
10904;SDS011;5505;51.450;9.254;2022-09-27T03:46:38;2.30;;;0.80;;
10904;SDS011;5505;51.450;9.254;2022-09-27T03:49:25;1.53;;;0.43;;
10904;SDS011;5505;51.450;9.254;2022-09-27T03:52:12;1.13;;;1.00;;
10904;SDS011;5505;51.450;9.254;2022-09-27T03:54:59;1.57;;;0.80;;
10904;SDS011;5505;51.450;9.254;2022-09-27T03:57:47;1.67;;;1.37;;
10904;SDS011;5505;51.450;9.254;2022-09-27T04:00:34;0.93;;;0.90;;
10904;SDS011;5505;51.450;9.254;2022-09-27T04:03:22;1.93;;;0.40;;
10904;SDS011;5505;51.450;9.254;2022-09-27T04:06:11;1.20;;;0.63;;
10904;SDS011;5505;51.450;9.254;2022-09-27T04:08:58;0.80;;;0.50;;
10904;SDS011;5505;51.450;9.254;2022-09-27T04:11:45;0.70;;;0.50;;
10904;SDS011;5505;51.450;9.254;2022-09-27T04:14:33;1.27;;;0.70;;
10904;SDS011;5505;51.450;9.254;2022-09-27T04:17:20;2.33;;;0.80;;
10904;SDS011;5505;51.450;9.254;2022-09-27T04:20:10;1.57;;;0.90;;
10904;SDS011;5505;51.450;9.254;2022-09-27T04:22:57;2.03;;;0.90;;
10904;SDS011;5505;51.450;9.254;2022-09-27T04:25:44;1.83;;;1.00;;
10904;SDS011;5505;51.450;9.254;2022-09-27T04:28:32;1.80;;;1.03;;
10904;SDS011;5505;51.450;9.254;2022-09-27T04:31:19;1.30;;;0.50;;
10904;SDS011;5505;51.450;9.254;2022-09-27T04:34:06;2.53;;;0.80;;
10904;SDS011;5505;51.450;9.254;2022-09-27T04:36:55;0.63;;;0.43;;
10904;SDS011;5505;51.450;9.254;2022-09-27T04:39:41;1.30;;;0.70;;
10904;SDS011;5505;51.450;9.254;2022-09-27T04:42:28;1.80;;;0.60;;
10904;SDS011;5505;51.450;9.254;2022-09-27T04:45:16;1.47;;;0.67;;
10904;SDS011;5505;51.450;9.254;2022-09-27T04:48:03;1.83;;;0.50;;
10904;SDS011;5505;51.450;9.254;2022-09-27T04:50:54;1.67;;;0.43;;
10904;SDS011;5505;51.450;9.254;2022-09-27T04:53:44;2.50;;;0.60;;
10904;SDS011;5505;51.450;9.254;2022-09-27T04:56:31;2.03;;;0.80;;
10904;SDS011;5505;51.450;9.254;2022-09-27T04:59:18;1.60;;;0.90;;
10904;SDS011;5505;51.450;9.254;2022-09-27T05:02:06;1.10;;;0.80;;
10904;SDS011;5505;51.450;9.254;2022-09-27T05:04:53;1.23;;;0.47;;
10904;SDS011;5505;51.450;9.254;2022-09-27T05:07:40;1.00;;;0.60;;
10904;SDS011;5505;51.450;9.254;2022-09-27T05:10:29;2.57;;;1.00;;
10904;SDS011;5505;51.450;9.254;2022-09-27T05:13:16;2.13;;;0.60;;
10904;SDS011;5505;51.450;9.254;2022-09-27T05:16:04;1.27;;;0.77;;
10904;SDS011;5505;51.450;9.254;2022-09-27T05:18:51;1.90;;;0.70;;
10904;SDS011;5505;51.450;9.254;2022-09-27T05:21:38;0.97;;;0.87;;
10904;SDS011;5505;51.450;9.254;2022-09-27T05:24:25;1.10;;;0.90;;
10904;SDS011;5505;51.450;9.254;2022-09-27T05:27:15;2.57;;;0.80;;
10904;SDS011;5505;51.450;9.254;2022-09-27T05:30:05;2.27;;;1.00;;
10904;SDS011;5505;51.450;9.254;2022-09-27T05:32:52;1.00;;;0.93;;
10904;SDS011;5505;51.450;9.254;2022-09-27T05:35:40;2.03;;;0.90;;
10904;SDS011;5505;51.450;9.254;2022-09-27T05:38:29;1.20;;;1.10;;
10904;SDS011;5505;51.450;9.254;2022-09-27T05:41:16;1.80;;;0.90;;
10904;SDS011;5505;51.450;9.254;2022-09-27T05:44:05;1.77;;;1.03;;
10904;SDS011;5505;51.450;9.254;2022-09-27T05:46:52;1.80;;;1.37;;
10904;SDS011;5505;51.450;9.254;2022-09-27T05:49:39;1.90;;;0.87;;
10904;SDS011;5505;51.450;9.254;2022-09-27T05:52:26;1.73;;;1.40;;
10904;SDS011;5505;51.450;9.254;2022-09-27T05:55:14;1.27;;;1.17;;
10904;SDS011;5505;51.450;9.254;2022-09-27T05:58:02;2.17;;;1.63;;
10904;SDS011;5505;51.450;9.254;2022-09-27T06:00:51;1.20;;;1.10;;
10904;SDS011;5505;51.450;9.254;2022-09-27T06:03:38;1.73;;;1.50;;
10904;SDS011;5505;51.450;9.254;2022-09-27T06:06:25;1.30;;;1.20;;
10904;SDS011;5505;51.450;9.254;2022-09-27T06:09:13;2.03;;;1.30;;
10904;SDS011;5505;51.450;9.254;2022-09-27T06:12:01;1.23;;;1.13;;
10904;SDS011;5505;51.450;9.254;2022-09-27T06:14:48;2.10;;;1.60;;
10904;SDS011;5505;51.450;9.254;2022-09-27T06:17:37;1.93;;;1.23;;
10904;SDS011;5505;51.450;9.254;2022-09-27T06:20:24;1.67;;;1.20;;
10904;SDS011;5505;51.450;9.254;2022-09-27T06:23:12;2.00;;;1.20;;
10904;SDS011;5505;51.450;9.254;2022-09-27T06:26:00;2.20;;;1.17;;
10904;SDS011;5505;51.450;9.254;2022-09-27T06:28:49;1.90;;;1.10;;
10904;SDS011;5505;51.450;9.254;2022-09-27T06:31:36;2.27;;;1.50;;
10904;SDS011;5505;51.450;9.254;2022-09-27T06:34:25;1.33;;;1.23;;
10904;SDS011;5505;51.450;9.254;2022-09-27T06:37:12;2.03;;;1.40;;
10904;SDS011;5505;51.450;9.254;2022-09-27T06:39:59;1.43;;;1.33;;
10904;SDS011;5505;51.450;9.254;2022-09-27T06:42:48;2.67;;;1.20;;
10904;SDS011;5505;51.450;9.254;2022-09-27T06:45:35;2.33;;;1.20;;
10904;SDS011;5505;51.450;9.254;2022-09-27T06:48:23;2.23;;;1.77;;
10904;SDS011;5505;51.450;9.254;2022-09-27T06:51:12;2.73;;;1.80;;
10904;SDS011;5505;51.450;9.254;2022-09-27T06:53:59;3.17;;;1.40;;
10904;SDS011;5505;51.450;9.254;2022-09-27T06:56:47;4.90;;;1.60;;
10904;SDS011;5505;51.450;9.254;2022-09-27T06:59:34;3.80;;;1.60;;
10904;SDS011;5505;51.450;9.254;2022-09-27T07:02:38;2.30;;;1.57;;
10904;SDS011;5505;51.450;9.254;2022-09-27T07:05:25;5.67;;;1.70;;
10904;SDS011;5505;51.450;9.254;2022-09-27T07:08:15;3.37;;;1.87;;
10904;SDS011;5505;51.450;9.254;2022-09-27T07:11:03;8.30;;;2.10;;
10904;SDS011;5505;51.450;9.254;2022-09-27T07:13:52;2.83;;;1.67;;
10904;SDS011;5505;51.450;9.254;2022-09-27T07:16:40;3.40;;;2.17;;
10904;SDS011;5505;51.450;9.254;2022-09-27T07:19:27;4.57;;;2.40;;
10904;SDS011;5505;51.450;9.254;2022-09-27T07:22:15;3.10;;;2.80;;
10904;SDS011;5505;51.450;9.254;2022-09-27T07:25:04;3.07;;;2.40;;
10904;SDS011;5505;51.450;9.254;2022-09-27T07:27:51;4.20;;;2.30;;
10904;SDS011;5505;51.450;9.254;2022-09-27T07:30:38;3.93;;;2.30;;
10904;SDS011;5505;51.450;9.254;2022-09-27T07:33:25;3.83;;;2.30;;
10904;SDS011;5505;51.450;9.254;2022-09-27T07:36:13;3.50;;;2.53;;
10904;SDS011;5505;51.450;9.254;2022-09-27T07:39:00;3.33;;;2.10;;
10904;SDS011;5505;51.450;9.254;2022-09-27T07:41:48;3.03;;;2.03;;
10904;SDS011;5505;51.450;9.254;2022-09-27T07:44:36;2.17;;;2.07;;
10904;SDS011;5505;51.450;9.254;2022-09-27T07:47:24;3.10;;;1.80;;
10904;SDS011;5505;51.450;9.254;2022-09-27T07:50:11;3.30;;;2.00;;
10904;SDS011;5505;51.450;9.254;2022-09-27T07:52:59;2.67;;;2.10;;
10904;SDS011;5505;51.450;9.254;2022-09-27T07:55:48;3.23;;;2.03;;
10904;SDS011;5505;51.450;9.254;2022-09-27T07:58:38;3.27;;;1.90;;
10904;SDS011;5505;51.450;9.254;2022-09-27T08:01:26;3.73;;;2.23;;
10904;SDS011;5505;51.450;9.254;2022-09-27T08:04:13;3.27;;;2.37;;
10904;SDS011;5505;51.450;9.254;2022-09-27T08:07:00;2.93;;;2.63;;
10904;SDS011;5505;51.450;9.254;2022-09-27T08:09:47;3.83;;;3.10;;
10904;SDS011;5505;51.450;9.254;2022-09-27T08:12:35;5.17;;;3.17;;
10904;SDS011;5505;51.450;9.254;2022-09-27T08:15:24;3.03;;;2.73;;
10904;SDS011;5505;51.450;9.254;2022-09-27T08:18:12;5.13;;;3.27;;
10904;SDS011;5505;51.450;9.254;2022-09-27T08:21:00;7.07;;;3.70;;
10904;SDS011;5505;51.450;9.254;2022-09-27T08:23:47;2.90;;;2.43;;
10904;SDS011;5505;51.450;9.254;2022-09-27T08:26:35;4.93;;;2.80;;
10904;SDS011;5505;51.450;9.254;2022-09-27T08:29:22;3.57;;;2.77;;
10904;SDS011;5505;51.450;9.254;2022-09-27T08:32:10;3.83;;;2.33;;
10904;SDS011;5505;51.450;9.254;2022-09-27T08:34:58;2.83;;;2.47;;
10904;SDS011;5505;51.450;9.254;2022-09-27T08:37:51;4.10;;;2.67;;
10904;SDS011;5505;51.450;9.254;2022-09-27T08:40:42;3.00;;;2.77;;
10904;SDS011;5505;51.450;9.254;2022-09-27T08:43:38;6.33;;;3.07;;
10904;SDS011;5505;51.450;9.254;2022-09-27T08:46:35;5.13;;;2.73;;
10904;SDS011;5505;51.450;9.254;2022-09-27T08:49:33;4.27;;;3.10;;
10904;SDS011;5505;51.450;9.254;2022-09-27T08:52:26;3.77;;;2.60;;
10904;SDS011;5505;51.450;9.254;2022-09-27T08:55:18;4.30;;;2.90;;
10904;SDS011;5505;51.450;9.254;2022-09-27T08:58:11;6.13;;;2.67;;
10904;SDS011;5505;51.450;9.254;2022-09-27T09:01:02;4.00;;;2.70;;
10904;SDS011;5505;51.450;9.254;2022-09-27T09:03:52;3.40;;;2.73;;
10904;SDS011;5505;51.450;9.254;2022-09-27T09:06:44;5.00;;;2.70;;
10904;SDS011;5505;51.450;9.254;2022-09-27T09:09:39;4.87;;;2.90;;
10904;SDS011;5505;51.450;9.254;2022-09-27T09:12:36;4.73;;;2.80;;
10904;SDS011;5505;51.450;9.254;2022-09-27T09:15:34;7.13;;;3.70;;
10904;SDS011;5505;51.450;9.254;2022-09-27T09:18:47;3.67;;;2.00;;
10904;SDS011;5505;51.450;9.254;2022-09-27T09:21:46;4.80;;;2.50;;
10904;SDS011;5505;51.450;9.254;2022-09-27T09:24:47;5.87;;;2.40;;
10904;SDS011;5505;51.450;9.254;2022-09-27T09:27:42;4.80;;;2.53;;
10904;SDS011;5505;51.450;9.254;2022-09-27T09:30:38;4.83;;;2.50;;
10904;SDS011;5505;51.450;9.254;2022-09-27T09:33:32;4.17;;;2.53;;
10904;SDS011;5505;51.450;9.254;2022-09-27T09:36:24;4.17;;;2.37;;
10904;SDS011;5505;51.450;9.254;2022-09-27T09:39:18;5.20;;;2.40;;
10904;SDS011;5505;51.450;9.254;2022-09-27T09:42:09;5.43;;;2.50;;
10904;SDS011;5505;51.450;9.254;2022-09-27T09:45:00;5.87;;;2.30;;
10904;SDS011;5505;51.450;9.254;2022-09-27T09:47:52;3.47;;;2.30;;
10904;SDS011;5505;51.450;9.254;2022-09-27T09:50:46;4.50;;;2.30;;
10904;SDS011;5505;51.450;9.254;2022-09-27T09:53:37;4.30;;;2.50;;
10904;SDS011;5505;51.450;9.254;2022-09-27T09:56:30;6.27;;;2.60;;
10904;SDS011;5505;51.450;9.254;2022-09-27T09:59:19;3.07;;;2.13;;
10904;SDS011;5505;51.450;9.254;2022-09-27T10:02:20;7.00;;;2.60;;
10904;SDS011;5505;51.450;9.254;2022-09-27T10:05:14;6.53;;;2.50;;
10904;SDS011;5505;51.450;9.254;2022-09-27T10:08:05;4.63;;;2.60;;
10904;SDS011;5505;51.450;9.254;2022-09-27T10:10:56;5.53;;;2.27;;
10904;SDS011;5505;51.450;9.254;2022-09-27T10:13:45;6.93;;;2.10;;
10904;SDS011;5505;51.450;9.254;2022-09-27T10:16:32;6.73;;;2.30;;
10904;SDS011;5505;51.450;9.254;2022-09-27T10:19:22;2.67;;;2.00;;
10904;SDS011;5505;51.450;9.254;2022-09-27T10:22:16;3.23;;;2.20;;
10904;SDS011;5505;51.450;9.254;2022-09-27T10:25:15;2.57;;;1.50;;
10904;SDS011;5505;51.450;9.254;2022-09-27T10:28:02;1.77;;;0.90;;
10904;SDS011;5505;51.450;9.254;2022-09-27T10:30:55;1.67;;;0.73;;
10904;SDS011;5505;51.450;9.254;2022-09-27T10:33:50;1.00;;;0.53;;
10904;SDS011;5505;51.450;9.254;2022-09-27T10:36:40;2.20;;;0.80;;
10904;SDS011;5505;51.450;9.254;2022-09-27T10:39:27;2.43;;;0.70;;
10904;SDS011;5505;51.450;9.254;2022-09-27T10:42:21;0.83;;;0.70;;
10904;SDS011;5505;51.450;9.254;2022-09-27T10:45:20;1.67;;;0.70;;
10904;SDS011;5505;51.450;9.254;2022-09-27T10:48:18;2.60;;;0.90;;
10904;SDS011;5505;51.450;9.254;2022-09-27T10:51:18;2.27;;;1.33;;
10904;SDS011;5505;51.450;9.254;2022-09-27T10:54:20;1.87;;;1.00;;
10904;SDS011;5505;51.450;9.254;2022-09-27T10:57:15;5.13;;;1.53;;
10904;SDS011;5505;51.450;9.254;2022-09-27T11:00:05;2.17;;;1.00;;
10904;SDS011;5505;51.450;9.254;2022-09-27T11:03:07;2.37;;;0.80;;
10904;SDS011;5505;51.450;9.254;2022-09-27T11:06:05;2.30;;;0.73;;
10904;SDS011;5505;51.450;9.254;2022-09-27T11:09:20;2.47;;;0.93;;
10904;SDS011;5505;51.450;9.254;2022-09-27T11:12:11;1.10;;;0.80;;
10904;SDS011;5505;51.450;9.254;2022-09-27T11:15:00;1.00;;;0.60;;
10904;SDS011;5505;51.450;9.254;2022-09-27T11:17:53;1.80;;;0.77;;
10904;SDS011;5505;51.450;9.254;2022-09-27T11:20:46;2.87;;;1.27;;
10904;SDS011;5505;51.450;9.254;2022-09-27T11:23:49;2.43;;;0.67;;
10904;SDS011;5505;51.450;9.254;2022-09-27T11:26:48;1.90;;;0.93;;
10904;SDS011;5505;51.450;9.254;2022-09-27T11:29:48;2.57;;;0.80;;
10904;SDS011;5505;51.450;9.254;2022-09-27T11:32:54;1.23;;;0.60;;
10904;SDS011;5505;51.450;9.254;2022-09-27T11:36:10;1.93;;;0.53;;
10904;SDS011;5505;51.450;9.254;2022-09-27T11:39:04;2.47;;;0.60;;
10904;SDS011;5505;51.450;9.254;2022-09-27T11:42:02;1.63;;;0.50;;
10904;SDS011;5505;51.450;9.254;2022-09-27T11:45:03;0.83;;;0.50;;
10904;SDS011;5505;51.450;9.254;2022-09-27T11:48:07;1.20;;;0.67;;
10904;SDS011;5505;51.450;9.254;2022-09-27T11:51:17;1.73;;;0.40;;
10904;SDS011;5505;51.450;9.254;2022-09-27T11:54:22;1.53;;;0.83;;
10904;SDS011;5505;51.450;9.254;2022-09-27T11:57:22;0.90;;;0.60;;
10904;SDS011;5505;51.450;9.254;2022-09-27T12:00:14;3.83;;;1.30;;
10904;SDS011;5505;51.450;9.254;2022-09-27T12:03:19;1.70;;;0.70;;
10904;SDS011;5505;51.450;9.254;2022-09-27T12:06:24;1.50;;;0.80;;
10904;SDS011;5505;51.450;9.254;2022-09-27T12:09:21;1.20;;;1.10;;
10904;SDS011;5505;51.450;9.254;2022-09-27T12:12:14;1.30;;;1.20;;
10904;SDS011;5505;51.450;9.254;2022-09-27T12:15:11;1.73;;;0.70;;
10904;SDS011;5505;51.450;9.254;2022-09-27T12:18:02;1.63;;;0.50;;
10904;SDS011;5505;51.450;9.254;2022-09-27T12:20:56;0.80;;;0.50;;
10904;SDS011;5505;51.450;9.254;2022-09-27T12:23:47;0.93;;;0.50;;
10904;SDS011;5505;51.450;9.254;2022-09-27T12:26:37;2.97;;;0.70;;
10904;SDS011;5505;51.450;9.254;2022-09-27T12:29:28;3.23;;;1.10;;
10904;SDS011;5505;51.450;9.254;2022-09-27T12:32:19;2.53;;;0.83;;
10904;SDS011;5505;51.450;9.254;2022-09-27T12:35:14;2.20;;;1.00;;
10904;SDS011;5505;51.450;9.254;2022-09-27T12:38:05;1.47;;;0.40;;
10904;SDS011;5505;51.450;9.254;2022-09-27T12:40:57;2.17;;;0.60;;
10904;SDS011;5505;51.450;9.254;2022-09-27T12:43:47;3.47;;;0.70;;
10904;SDS011;5505;51.450;9.254;2022-09-27T12:46:38;0.57;;;0.43;;
10904;SDS011;5505;51.450;9.254;2022-09-27T12:49:40;3.50;;;0.60;;
10904;SDS011;5505;51.450;9.254;2022-09-27T12:52:34;0.80;;;0.50;;
10904;SDS011;5505;51.450;9.254;2022-09-27T12:55:38;1.83;;;1.20;;
10904;SDS011;5505;51.450;9.254;2022-09-27T12:58:53;1.20;;;1.00;;
10904;SDS011;5505;51.450;9.254;2022-09-27T13:02:18;1.13;;;1.03;;
10904;SDS011;5505;51.450;9.254;2022-09-27T13:05:21;2.53;;;2.10;;
10904;SDS011;5505;51.450;9.254;2022-09-27T13:08:33;5.13;;;2.87;;
10904;SDS011;5505;51.450;9.254;2022-09-27T13:11:39;3.87;;;2.70;;
10904;SDS011;5505;51.450;9.254;2022-09-27T13:14:37;1.37;;;1.27;;
10904;SDS011;5505;51.450;9.254;2022-09-27T13:20:39;0.87;;;0.77;;
10904;SDS011;5505;51.450;9.254;2022-09-27T13:26:46;0.50;;;0.50;;
10904;SDS011;5505;51.450;9.254;2022-09-27T13:29:36;1.50;;;0.57;;
10904;SDS011;5505;51.450;9.254;2022-09-27T13:32:23;0.57;;;0.50;;
10904;SDS011;5505;51.450;9.254;2022-09-27T13:35:17;0.60;;;0.50;;
10904;SDS011;5505;51.450;9.254;2022-09-27T13:38:17;0.80;;;0.80;;
10904;SDS011;5505;51.450;9.254;2022-09-27T13:41:14;1.23;;;0.70;;
10904;SDS011;5505;51.450;9.254;2022-09-27T13:44:02;2.20;;;0.57;;
10904;SDS011;5505;51.450;9.254;2022-09-27T13:47:00;1.30;;;0.53;;
10904;SDS011;5505;51.450;9.254;2022-09-27T13:49:51;0.83;;;0.60;;
10904;SDS011;5505;51.450;9.254;2022-09-27T13:52:41;1.83;;;0.50;;
10904;SDS011;5505;51.450;9.254;2022-09-27T13:55:37;1.57;;;0.63;;
10904;SDS011;5505;51.450;9.254;2022-09-27T13:58:33;0.57;;;0.40;;
10904;SDS011;5505;51.450;9.254;2022-09-27T14:01:32;0.97;;;0.37;;
10904;SDS011;5505;51.450;9.254;2022-09-27T14:04:23;0.37;;;0.27;;
10904;SDS011;5505;51.450;9.254;2022-09-27T14:07:15;1.33;;;0.30;;
10904;SDS011;5505;51.450;9.254;2022-09-27T14:10:04;2.10;;;0.70;;
10904;SDS011;5505;51.450;9.254;2022-09-27T14:12:58;0.80;;;0.77;;
10904;SDS011;5505;51.450;9.254;2022-09-27T14:15:48;1.03;;;0.40;;
10904;SDS011;5505;51.450;9.254;2022-09-27T14:18:41;1.20;;;0.47;;
10904;SDS011;5505;51.450;9.254;2022-09-27T14:21:35;1.53;;;0.77;;
10904;SDS011;5505;51.450;9.254;2022-09-27T14:24:27;3.20;;;0.60;;
10904;SDS011;5505;51.450;9.254;2022-09-27T14:27:16;1.60;;;1.20;;
10904;SDS011;5505;51.450;9.254;2022-09-27T14:30:07;1.30;;;1.07;;
10904;SDS011;5505;51.450;9.254;2022-09-27T14:32:56;1.87;;;1.70;;
10904;SDS011;5505;51.450;9.254;2022-09-27T14:35:45;4.63;;;3.10;;
10904;SDS011;5505;51.450;9.254;2022-09-27T14:38:53;4.07;;;2.80;;
10904;SDS011;5505;51.450;9.254;2022-09-27T14:41:43;6.33;;;2.73;;
10904;SDS011;5505;51.450;9.254;2022-09-27T14:44:30;3.40;;;2.33;;
10904;SDS011;5505;51.450;9.254;2022-09-27T14:47:18;1.43;;;0.80;;
10904;SDS011;5505;51.450;9.254;2022-09-27T14:50:12;2.20;;;1.30;;
10904;SDS011;5505;51.450;9.254;2022-09-27T14:53:18;3.60;;;1.90;;
10904;SDS011;5505;51.450;9.254;2022-09-27T14:56:09;2.90;;;1.90;;
10904;SDS011;5505;51.450;9.254;2022-09-27T14:59:03;1.10;;;0.90;;
10904;SDS011;5505;51.450;9.254;2022-09-27T15:01:53;1.33;;;1.20;;
10904;SDS011;5505;51.450;9.254;2022-09-27T15:04:41;1.40;;;0.90;;
10904;SDS011;5505;51.450;9.254;2022-09-27T15:07:31;2.07;;;0.93;;
10904;SDS011;5505;51.450;9.254;2022-09-27T15:10:19;1.10;;;0.83;;
10904;SDS011;5505;51.450;9.254;2022-09-27T15:13:11;1.53;;;0.90;;
10904;SDS011;5505;51.450;9.254;2022-09-27T15:16:00;1.53;;;1.30;;
10904;SDS011;5505;51.450;9.254;2022-09-27T15:18:57;1.40;;;1.30;;
10904;SDS011;5505;51.450;9.254;2022-09-27T15:21:46;0.77;;;0.70;;
10904;SDS011;5505;51.450;9.254;2022-09-27T15:24:37;1.23;;;0.90;;
10904;SDS011;5505;51.450;9.254;2022-09-27T15:27:26;0.70;;;0.70;;
10904;SDS011;5505;51.450;9.254;2022-09-27T15:30:16;1.03;;;0.50;;
10904;SDS011;5505;51.450;9.254;2022-09-27T15:33:06;1.00;;;0.70;;
10904;SDS011;5505;51.450;9.254;2022-09-27T15:36:06;1.23;;;0.70;;
10904;SDS011;5505;51.450;9.254;2022-09-27T15:38:59;1.03;;;0.90;;
10904;SDS011;5505;51.450;9.254;2022-09-27T15:41:59;1.33;;;0.93;;
10904;SDS011;5505;51.450;9.254;2022-09-27T15:44:54;1.40;;;1.30;;
10904;SDS011;5505;51.450;9.254;2022-09-27T15:47:53;1.53;;;1.43;;
10904;SDS011;5505;51.450;9.254;2022-09-27T15:50:40;1.97;;;1.27;;
10904;SDS011;5505;51.450;9.254;2022-09-27T15:53:43;2.83;;;0.90;;
10904;SDS011;5505;51.450;9.254;2022-09-27T15:56:30;0.73;;;0.73;;
10904;SDS011;5505;51.450;9.254;2022-09-27T15:59:19;0.97;;;0.87;;
10904;SDS011;5505;51.450;9.254;2022-09-27T16:02:09;0.80;;;0.80;;
10904;SDS011;5505;51.450;9.254;2022-09-27T16:05:03;1.33;;;0.60;;
10904;SDS011;5505;51.450;9.254;2022-09-27T16:07:50;3.13;;;0.90;;
10904;SDS011;5505;51.450;9.254;2022-09-27T16:10:38;2.20;;;0.80;;
10904;SDS011;5505;51.450;9.254;2022-09-27T16:13:28;3.67;;;0.97;;
10904;SDS011;5505;51.450;9.254;2022-09-27T16:16:15;1.90;;;0.87;;
10904;SDS011;5505;51.450;9.254;2022-09-27T16:19:04;1.17;;;0.97;;
10904;SDS011;5505;51.450;9.254;2022-09-27T16:21:53;2.07;;;1.10;;
10904;SDS011;5505;51.450;9.254;2022-09-27T16:24:40;1.93;;;1.70;;
10904;SDS011;5505;51.450;9.254;2022-09-27T16:27:27;6.70;;;4.97;;
10904;SDS011;5505;51.450;9.254;2022-09-27T16:30:15;2.27;;;2.07;;
10904;SDS011;5505;51.450;9.254;2022-09-27T16:33:02;3.60;;;3.30;;
10904;SDS011;5505;51.450;9.254;2022-09-27T16:35:49;2.87;;;2.67;;
10904;SDS011;5505;51.450;9.254;2022-09-27T16:38:38;2.50;;;2.00;;
10904;SDS011;5505;51.450;9.254;2022-09-27T16:41:25;1.70;;;1.60;;
10904;SDS011;5505;51.450;9.254;2022-09-27T16:44:13;1.87;;;1.77;;
10904;SDS011;5505;51.450;9.254;2022-09-27T16:47:01;3.47;;;1.90;;
10904;SDS011;5505;51.450;9.254;2022-09-27T16:49:49;2.10;;;1.90;;
10904;SDS011;5505;51.450;9.254;2022-09-27T16:52:53;1.50;;;1.40;;
10904;SDS011;5505;51.450;9.254;2022-09-27T16:55:42;1.20;;;1.10;;
10904;SDS011;5505;51.450;9.254;2022-09-27T16:58:29;3.60;;;1.50;;
10904;SDS011;5505;51.450;9.254;2022-09-27T17:01:16;1.57;;;1.47;;
10904;SDS011;5505;51.450;9.254;2022-09-27T17:04:03;2.60;;;2.40;;
10904;SDS011;5505;51.450;9.254;2022-09-27T17:06:51;2.40;;;1.80;;
10904;SDS011;5505;51.450;9.254;2022-09-27T17:09:38;1.63;;;1.53;;
10904;SDS011;5505;51.450;9.254;2022-09-27T17:12:27;2.00;;;1.80;;
10904;SDS011;5505;51.450;9.254;2022-09-27T17:15:15;2.70;;;1.83;;
10904;SDS011;5505;51.450;9.254;2022-09-27T17:18:02;1.97;;;1.70;;
10904;SDS011;5505;51.450;9.254;2022-09-27T17:20:49;2.83;;;2.13;;
10904;SDS011;5505;51.450;9.254;2022-09-27T17:23:37;3.17;;;2.50;;
10904;SDS011;5505;51.450;9.254;2022-09-27T17:26:24;2.40;;;2.20;;
10904;SDS011;5505;51.450;9.254;2022-09-27T17:29:16;2.67;;;2.07;;
10904;SDS011;5505;51.450;9.254;2022-09-27T17:32:04;2.73;;;2.37;;
10904;SDS011;5505;51.450;9.254;2022-09-27T17:34:53;3.40;;;2.30;;
10904;SDS011;5505;51.450;9.254;2022-09-27T17:37:40;2.73;;;2.53;;